Time;durP1;ratioP1;P1;durP2;ratioP2;P2;SDS_P1;SDS_P2;PMS_P1;PMS_P2;Temp;Humidity;BMP_temperature;BMP_pressure;BME280_temperature;BME280_humidity;BME280_pressure;Samples;Min_cycle;Max_cycle;Signal;HPM_P1;HPM_P2
2022/08/14 00:02:08;;;;;;;5.70;4.10;;;22.40;51.10;;;;;;5018268;28;20118;-74
2022/08/14 00:04:34;;;;;;;5.07;4.57;;;22.40;51.20;;;;;;5026492;28;20029;-74
2022/08/14 00:07:00;;;;;;;4.55;4.20;;;22.40;51.30;;;;;;5021517;28;20437;-74
2022/08/14 00:09:25;;;;;;;6.93;4.38;;;22.40;51.20;;;;;;5022035;28;20099;-73
2022/08/14 00:11:51;;;;;;;5.35;4.85;;;22.30;51.20;;;;;;5017926;28;20033;-72
2022/08/14 00:14:17;;;;;;;5.35;4.85;;;22.30;51.30;;;;;;5021901;28;20045;-73
2022/08/14 00:16:42;;;;;;;6.22;4.65;;;22.30;51.50;;;;;;5020774;28;20553;-73
2022/08/14 00:19:08;;;;;;;6.05;4.43;;;22.30;51.60;;;;;;5020914;28;20453;-74
2022/08/14 00:21:34;;;;;;;8.48;4.30;;;22.30;51.80;;;;;;5039441;28;20045;-76
2022/08/14 00:23:59;;;;;;;4.82;4.40;;;22.20;51.90;;;;;;5004985;28;20493;-74
2022/08/14 00:26:25;;;;;;;7.22;4.43;;;22.20;51.90;;;;;;5026136;28;20038;-74
2022/08/14 00:28:51;;;;;;;4.50;4.03;;;22.20;51.90;;;;;;5044075;28;20033;-74
2022/08/14 00:31:17;;;;;;;4.97;4.30;;;22.20;52.00;;;;;;5029916;28;20033;-73
2022/08/14 00:33:42;;;;;;;5.80;4.10;;;22.10;52.10;;;;;;5012194;28;20047;-73
2022/08/14 00:36:08;;;;;;;5.38;4.68;;;22.10;52.20;;;;;;5026576;28;20702;-72
2022/08/14 00:38:34;;;;;;;5.53;4.90;;;22.10;52.20;;;;;;5019616;28;20093;-72
2022/08/14 00:41:00;;;;;;;6.35;4.40;;;22.10;52.30;;;;;;5024716;28;20120;-73
2022/08/14 00:43:26;;;;;;;7.82;4.68;;;22.10;52.30;;;;;;5012580;28;21592;-72
2022/08/14 00:45:51;;;;;;;5.10;4.60;;;22.10;52.40;;;;;;4998175;28;20034;-73
2022/08/14 00:48:17;;;;;;;6.10;4.60;;;22.00;52.50;;;;;;5021269;28;20041;-72
2022/08/14 00:50:43;;;;;;;7.38;5.00;;;22.00;52.50;;;;;;5028626;28;20060;-73
2022/08/14 00:53:09;;;;;;;5.15;4.38;;;22.00;52.70;;;;;;5014117;28;20041;-73
2022/08/14 00:55:35;;;;;;;5.65;4.68;;;22.00;52.70;;;;;;5034374;28;20045;-73
2022/08/14 01:00:45;;;;;;;5.95;5.35;;;22.00;52.90;;;;;;5005692;28;20052;-73
2022/08/14 01:03:10;;;;;;;4.80;4.40;;;21.90;52.90;;;;;;5024794;28;20030;-73
2022/08/14 01:05:36;;;;;;;5.38;4.88;;;21.90;53.00;;;;;;5021698;28;20753;-73
2022/08/14 01:08:02;;;;;;;6.10;4.85;;;21.90;53.10;;;;;;5023479;28;20029;-73
2022/08/14 01:13:15;;;;;;;4.93;4.47;;;21.80;53.20;;;;;;5017998;28;20040;-73
2022/08/14 01:15:42;;;;;;;6.15;4.85;;;21.80;53.50;;;;;;4993665;28;20076;-73
2022/08/14 01:21:10;;;;;;;7.60;5.30;;;21.70;53.60;;;;;;5025252;28;20060;-73
2022/08/14 01:23:38;;;;;;;5.55;4.93;;;21.70;53.60;;;;;;5014185;28;20045;-73
2022/08/14 01:26:04;;;;;;;5.72;5.07;;;21.70;53.70;;;;;;5009268;28;20033;-73
2022/08/14 01:28:30;;;;;;;8.18;5.05;;;21.60;53.70;;;;;;5007763;28;20048;-72
2022/08/14 01:30:56;;;;;;;5.50;5.00;;;21.60;53.80;;;;;;5019770;28;20134;-73
2022/08/14 01:33:27;;;;;;;6.07;5.05;;;21.60;54.00;;;;;;5006881;28;20044;-72
2022/08/14 01:35:57;;;;;;;5.78;5.13;;;21.60;54.10;;;;;;5017384;28;20065;-72
2022/08/14 01:38:23;;;;;;;5.68;5.15;;;21.60;54.10;;;;;;5018837;28;20115;-73
2022/08/14 01:40:49;;;;;;;5.47;4.88;;;21.50;54.20;;;;;;5026267;28;20049;-72
2022/08/14 01:43:16;;;;;;;5.95;5.05;;;21.50;54.30;;;;;;5022445;28;20038;-72
2022/08/14 01:45:43;;;;;;;6.13;5.30;;;21.50;54.40;;;;;;5005469;28;20446;-72
2022/08/14 01:48:09;;;;;;;7.43;5.28;;;21.40;54.30;;;;;;4997598;28;20065;-72
2022/08/14 01:50:38;;;;;;;7.30;5.03;;;21.40;54.40;;;;;;5007920;28;20046;-73
2022/08/14 01:53:03;;;;;;;5.93;5.32;;;21.40;54.60;;;;;;4981446;28;20034;-74
2022/08/14 01:55:38;;;;;;;5.97;5.32;;;21.30;54.60;;;;;;4979518;28;20041;-75
2022/08/14 01:58:03;;;;;;;5.80;5.20;;;21.30;54.90;;;;;;5007348;28;20033;-75
2022/08/14 02:00:38;;;;;;;5.50;5.00;;;21.30;54.80;;;;;;4971291;28;20026;-74
2022/08/14 02:03:15;;;;;;;5.82;5.22;;;21.20;55.10;;;;;;4996553;28;20034;-77
2022/08/14 02:05:46;;;;;;;6.05;5.03;;;21.20;55.10;;;;;;4982745;28;20103;-75
2022/08/14 02:08:12;;;;;;;;;;;21.20;55.10;;;;;;4976320;28;20057;-76
2022/08/14 02:10:40;;;;;;;5.32;4.82;;;21.10;54.90;;;;;;4995572;28;20358;-74
2022/08/14 02:13:07;;;;;;;6.28;5.65;;;21.10;55.00;;;;;;4993613;28;20061;-75
2022/08/14 02:15:33;;;;;;;6.05;5.35;;;21.10;55.00;;;;;;4988177;28;20093;-74
2022/08/14 02:18:00;;;;;;;6.90;5.18;;;21.00;55.20;;;;;;5010473;28;20053;-74
2022/08/14 02:20:32;;;;;;;6.65;5.57;;;21.00;55.30;;;;;;5003762;28;20038;-74
2022/08/14 02:22:59;;;;;;;6.18;5.57;;;20.90;55.40;;;;;;4976714;28;20042;-73
2022/08/14 02:25:24;;;;;;;6.25;5.65;;;20.90;55.50;;;;;;5001317;28;20033;-73
2022/08/14 02:27:50;;;;;;;5.95;5.35;;;20.90;55.50;;;;;;5000906;28;20037;-74
2022/08/14 02:30:15;;;;;;;5.60;5.10;;;20.80;55.80;;;;;;4992879;28;20085;-73
2022/08/14 02:32:41;;;;;;;6.40;5.80;;;20.80;55.90;;;;;;4987362;28;20049;-73
2022/08/14 02:35:12;;;;;;;6.53;5.93;;;20.80;56.00;;;;;;5008067;28;20091;-74
2022/08/14 02:37:39;;;;;;;12.15;5.80;;;20.80;56.10;;;;;;4995238;28;20030;-73
2022/08/14 02:40:05;;;;;;;7.38;5.80;;;20.70;56.10;;;;;;4993467;28;20045;-74
2022/08/14 02:42:31;;;;;;;7.05;5.80;;;20.60;56.20;;;;;;5009936;28;20034;-73
2022/08/14 02:44:57;;;;;;;8.27;6.40;;;20.60;56.20;;;;;;4994862;28;20048;-73
2022/08/14 02:47:22;;;;;;;6.97;5.88;;;20.60;56.40;;;;;;5010537;28;20034;-73
2022/08/14 02:49:48;;;;;;;7.28;5.95;;;20.60;56.50;;;;;;5013222;28;20033;-74
2022/08/14 02:52:14;;;;;;;7.18;5.97;;;20.60;56.60;;;;;;5013284;28;20034;-73
2022/08/14 02:54:39;;;;;;;7.15;6.28;;;20.50;56.70;;;;;;4995247;28;20454;-74
2022/08/14 02:57:05;;;;;;;7.05;6.25;;;20.50;56.80;;;;;;5020295;28;20034;-73
2022/08/14 02:59:32;;;;;;;6.80;6.10;;;20.50;56.80;;;;;;4991046;28;20122;-73
2022/08/14 03:01:57;;;;;;;7.03;5.55;;;20.50;56.90;;;;;;5004864;28;20057;-73
2022/08/14 03:04:23;;;;;;;6.28;5.47;;;20.40;57.00;;;;;;4991559;28;20038;-74
2022/08/14 03:06:49;;;;;;;7.35;5.63;;;20.40;57.10;;;;;;5005770;28;20151;-73
2022/08/14 03:09:15;;;;;;;6.13;5.53;;;20.30;57.20;;;;;;4993011;28;20061;-74
2022/08/14 03:11:43;;;;;;;6.63;6.03;;;20.40;57.40;;;;;;5007644;28;20341;-73
2022/08/14 03:14:10;;;;;;;6.40;5.78;;;20.30;57.50;;;;;;5012162;28;20167;-73
2022/08/14 03:16:37;;;;;;;6.32;5.35;;;20.30;57.50;;;;;;5001030;28;20165;-73
2022/08/14 03:19:04;;;;;;;7.65;6.30;;;20.20;57.60;;;;;;5029487;28;20034;-74
2022/08/14 03:21:30;;;;;;;7.07;5.85;;;20.20;57.60;;;;;;5027115;28;20049;-73
2022/08/14 03:24:08;;;;;;;10.52;6.40;;;20.20;57.70;;;;;;5010396;28;20096;-73
2022/08/14 03:26:34;;;;;;;6.60;5.97;;;20.20;57.90;;;;;;4994521;28;20100;-74
2022/08/14 03:29:01;;;;;;;7.95;5.93;;;20.10;57.80;;;;;;5024045;28;20041;-73
2022/08/14 03:31:26;;;;;;;6.45;5.78;;;20.10;57.90;;;;;;5024827;28;20099;-73
2022/08/14 03:33:52;;;;;;;7.50;6.70;;;20.00;58.00;;;;;;5026438;28;20029;-73
2022/08/14 03:36:19;;;;;;;7.68;5.95;;;20.00;58.10;;;;;;5024826;28;20410;-74
2022/08/14 03:38:46;;;;;;;7.95;6.20;;;20.00;58.20;;;;;;5008809;28;20033;-74
2022/08/14 03:41:15;;;;;;;7.72;6.25;;;20.00;58.40;;;;;;5029646;28;20038;-73
2022/08/14 03:43:44;;;;;;;7.80;6.03;;;19.90;58.40;;;;;;5027712;28;20040;-74
2022/08/14 03:46:11;;;;;;;7.05;6.35;;;19.90;58.50;;;;;;5008906;28;20042;-74
2022/08/14 03:48:38;;;;;;;6.97;6.25;;;19.90;58.60;;;;;;5013008;28;20506;-74
2022/08/14 03:51:05;;;;;;;7.38;6.65;;;19.90;58.70;;;;;;5001906;28;20098;-74
2022/08/14 03:53:30;;;;;;;7.50;6.70;;;19.80;58.70;;;;;;5004512;28;20042;-73
2022/08/14 03:55:57;;;;;;;8.25;6.38;;;19.80;58.80;;;;;;5005932;28;20068;-73
2022/08/14 03:58:23;;;;;;;6.40;5.80;;;19.70;58.90;;;;;;5010900;28;20052;-74
2022/08/14 04:00:49;;;;;;;6.60;6.00;;;19.70;58.90;;;;;;5014283;28;20050;-74
2022/08/14 04:03:14;;;;;;;7.88;6.13;;;19.70;59.00;;;;;;5003238;28;20038;-74
2022/08/14 04:05:41;;;;;;;9.15;6.97;;;19.70;59.10;;;;;;5006016;28;20084;-74
2022/08/14 04:08:09;;;;;;;8.05;6.70;;;19.60;59.10;;;;;;5010509;28;20036;-74
2022/08/14 04:10:35;;;;;;;7.38;6.45;;;19.60;59.40;;;;;;5027210;28;20038;-74
2022/08/14 04:13:01;;;;;;;8.93;6.57;;;19.60;59.40;;;;;;4994437;28;20093;-74
2022/08/14 04:15:26;;;;;;;7.07;6.30;;;19.50;59.40;;;;;;5005593;28;20034;-73
2022/08/14 04:17:53;;;;;;;8.35;6.47;;;19.50;59.60;;;;;;4992559;28;20104;-73
2022/08/14 04:20:19;;;;;;;7.65;6.43;;;19.50;59.60;;;;;;5023810;28;20048;-73
2022/08/14 04:22:45;;;;;;;10.27;7.15;;;19.50;59.80;;;;;;5009847;28;20495;-74
2022/08/14 04:25:11;;;;;;;8.20;6.43;;;19.50;59.90;;;;;;5014110;28;20037;-74
2022/08/14 04:27:36;;;;;;;8.32;7.10;;;19.40;60.00;;;;;;5025263;28;20063;-74
2022/08/14 04:30:04;;;;;;;7.18;6.47;;;19.40;60.10;;;;;;5001316;28;20037;-74
2022/08/14 04:32:31;;;;;;;9.15;6.78;;;19.40;60.30;;;;;;5017562;28;20033;-73
2022/08/14 04:34:56;;;;;;;8.48;6.75;;;19.40;60.20;;;;;;5014512;28;20514;-73
2022/08/14 04:45:39;;;;;;;8.82;6.32;;;19.30;60.80;;;;;;5008103;28;20519;-74
2022/08/14 04:48:14;;;;;;;8.10;7.30;;;19.20;60.80;;;;;;5008288;28;20033;-73
2022/08/14 04:50:45;;;;;;;7.63;6.78;;;19.30;61.30;;;;;;4978163;28;20053;-74
2022/08/14 04:53:17;;;;;;;7.37;6.47;;;19.20;61.10;;;;;;5008924;28;20034;-74
2022/08/14 04:55:47;;;;;;;9.02;6.53;;;19.20;61.20;;;;;;5020336;28;20336;-74
2022/08/14 04:58:23;;;;;;;8.68;7.78;;;19.20;61.20;;;;;;5025615;28;20057;-74
2022/08/14 05:00:49;;;;;;;7.68;6.22;;;19.20;61.90;;;;;;5014349;28;20085;-73
2022/08/14 05:03:22;;;;;;;8.25;6.97;;;19.20;61.50;;;;;;5013845;28;20057;-73
2022/08/14 05:05:48;;;;;;;7.13;6.47;;;19.20;61.70;;;;;;4996735;28;20037;-74
2022/08/14 05:08:14;;;;;;;7.28;6.57;;;19.20;61.60;;;;;;5018488;28;20115;-73
2022/08/14 05:10:41;;;;;;;7.80;7.00;;;19.20;61.80;;;;;;5040983;28;20041;-74
2022/08/14 05:13:07;;;;;;;9.35;7.22;;;19.20;61.90;;;;;;5007116;28;20026;-73
2022/08/14 05:15:37;;;;;;;8.27;6.90;;;19.20;62.00;;;;;;5026429;28;20056;-73
2022/08/14 05:18:23;;;;;;;8.02;7.25;;;19.20;62.20;;;;;;5019896;28;20534;-73
2022/08/14 05:20:50;;;;;;;9.25;7.68;;;19.20;63.10;;;;;;5023439;28;20121;-74
2022/08/14 05:23:18;;;;;;;9.15;8.13;;;19.20;62.30;;;;;;5000805;28;20042;-73
2022/08/14 05:25:44;;;;;;;11.77;8.07;;;19.20;62.60;;;;;;5019003;28;20092;-73
2022/08/14 05:28:17;;;;;;;12.35;7.90;;;19.20;62.80;;;;;;5018258;28;20080;-73
2022/08/14 05:30:45;;;;;;;11.52;8.52;;;19.20;63.00;;;;;;5026321;28;20120;-73
2022/08/14 05:33:11;;;;;;;10.02;7.82;;;19.20;63.10;;;;;;5034514;28;20083;-74
2022/08/14 05:35:37;;;;;;;9.50;7.85;;;19.20;63.40;;;;;;5034963;28;20033;-74
2022/08/14 05:38:11;;;;;;;9.23;8.20;;;19.30;63.60;;;;;;5033154;28;20033;-74
2022/08/14 05:40:37;;;;;;;10.10;8.70;;;19.30;63.80;;;;;;5016583;28;20573;-74
2022/08/14 05:43:02;;;;;;;9.43;8.52;;;19.30;64.00;;;;;;5031423;28;20120;-74
2022/08/14 05:45:28;;;;;;;12.60;8.20;;;19.30;64.10;;;;;;5003591;28;20033;-75
2022/08/14 05:47:53;;;;;;;9.18;8.27;;;19.30;64.30;;;;;;5008188;28;20033;-74
2022/08/14 05:50:19;;;;;;;12.00;9.48;;;19.40;64.50;;;;;;5009512;28;20133;-74
2022/08/14 05:52:48;;;;;;;16.00;8.60;;;19.40;64.80;;;;;;5006729;28;20038;-74
2022/08/14 05:55:14;;;;;;;10.15;8.57;;;19.40;64.90;;;;;;4991667;28;20038;-73
2022/08/14 05:57:50;;;;;;;9.80;8.80;;;19.50;65.00;;;;;;4990711;28;20118;-73
2022/08/14 06:00:17;;;;;;;12.48;8.02;;;19.60;65.50;;;;;;5009345;28;20041;-74
2022/08/14 06:02:42;;;;;;;12.60;8.90;;;19.60;65.20;;;;;;5015975;28;20049;-73
2022/08/14 06:05:08;;;;;;;12.45;9.07;;;19.60;65.20;;;;;;5009508;28;20034;-74
2022/08/14 06:07:36;;;;;;;13.10;8.77;;;19.70;65.30;;;;;;5029332;28;20029;-74
2022/08/14 06:10:04;;;;;;;11.30;8.60;;;19.80;65.30;;;;;;4993255;28;20033;-74
2022/08/14 06:12:29;;;;;;;10.90;8.65;;;19.80;65.20;;;;;;5031177;28;20124;-73
2022/08/14 06:14:55;;;;;;;10.60;9.15;;;19.90;65.30;;;;;;5018142;28;20394;-74
2022/08/14 06:17:21;;;;;;;12.48;8.70;;;20.00;65.20;;;;;;5021875;28;20037;-72
2022/08/14 06:19:46;;;;;;;10.82;9.02;;;20.10;65.40;;;;;;5009189;28;20044;-73
2022/08/14 06:22:12;;;;;;;10.00;8.63;;;20.10;65.20;;;;;;5003486;28;20026;-73
2022/08/14 06:24:37;;;;;;;10.25;8.43;;;20.20;65.30;;;;;;5005353;28;20037;-72
2022/08/14 06:27:03;;;;;;;9.88;8.63;;;20.30;65.40;;;;;;5030061;28;20157;-73
2022/08/14 06:29:29;;;;;;;16.10;9.75;;;20.40;65.30;;;;;;5013755;28;20092;-73
2022/08/14 06:31:54;;;;;;;10.98;9.60;;;20.50;65.30;;;;;;4998648;28;20046;-73
2022/08/14 06:34:20;;;;;;;10.98;9.38;;;20.60;65.20;;;;;;5018546;28;20057;-74
2022/08/14 06:36:45;;;;;;;9.45;8.45;;;20.60;65.10;;;;;;5015516;28;20033;-72
2022/08/14 06:39:11;;;;;;;11.55;8.63;;;20.70;65.00;;;;;;5022512;28;20037;-74
2022/08/14 06:41:38;;;;;;;13.38;9.02;;;20.80;64.80;;;;;;5025270;28;20413;-74
2022/08/14 06:44:04;;;;;;;12.35;8.52;;;20.90;64.90;;;;;;5008058;28;20086;-73
2022/08/14 06:46:30;;;;;;;10.30;9.30;;;21.00;64.70;;;;;;5013264;28;20731;-73
2022/08/14 06:48:55;;;;;;;11.20;8.65;;;21.20;64.70;;;;;;5011879;28;20152;-73
2022/08/14 06:51:21;;;;;;;9.20;8.30;;;21.30;64.50;;;;;;5020111;28;20043;-73
2022/08/14 06:53:46;;;;;;;9.25;8.05;;;21.40;64.30;;;;;;5027875;28;20069;-74
2022/08/14 06:56:12;;;;;;;11.50;8.20;;;21.50;64.10;;;;;;5022929;28;20041;-74
2022/08/14 06:58:38;;;;;;;10.60;8.07;;;21.60;63.90;;;;;;5011416;28;20041;-73
2022/08/14 07:06:32;;;;;;;10.85;8.00;;;22.00;63.20;;;;;;5001266;28;20066;-74
2022/08/14 07:08:57;;;;;;;9.05;8.07;;;22.20;62.90;;;;;;4986653;28;20057;-74
2022/08/14 07:11:23;;;;;;;8.73;7.72;;;22.30;62.80;;;;;;5002372;28;20112;-74
2022/08/14 07:13:48;;;;;;;9.43;7.75;;;22.50;62.60;;;;;;5006457;28;20030;-73
2022/08/14 07:16:14;;;;;;;9.82;8.23;;;22.60;62.30;;;;;;5007411;28;20045;-74
2022/08/14 07:18:40;;;;;;;8.05;6.72;;;22.70;62.10;;;;;;4985401;28;20081;-73
2022/08/14 07:21:06;;;;;;;9.18;8.18;;;22.90;61.90;;;;;;5010997;28;20036;-74
2022/08/14 07:23:32;;;;;;;9.27;7.07;;;23.00;61.60;;;;;;5018879;28;20042;-75
2022/08/14 07:25:58;;;;;;;9.50;7.97;;;23.20;61.40;;;;;;4997254;28;20511;-74
2022/08/14 07:28:33;;;;;;;7.90;7.10;;;23.40;61.10;;;;;;4999608;28;20040;-74
2022/08/14 07:31:00;;;;;;;8.18;7.38;;;23.50;60.80;;;;;;5003270;28;20053;-74
2022/08/14 07:33:27;;;;;;;7.90;7.10;;;23.60;60.40;;;;;;5002620;28;20038;-73
2022/08/14 07:35:53;;;;;;;8.77;7.50;;;23.80;60.10;;;;;;5003403;28;20056;-73
2022/08/14 07:38:20;;;;;;;8.10;6.65;;;24.00;59.90;;;;;;5015390;28;20166;-73
2022/08/14 07:40:49;;;;;;;8.45;7.57;;;24.20;59.60;;;;;;5008483;28;20044;-73
2022/08/14 07:43:15;;;;;;;7.93;7.13;;;24.30;59.30;;;;;;5011964;28;20034;-74
2022/08/14 07:45:40;;;;;;;8.85;7.10;;;24.50;59.00;;;;;;4995232;28;20056;-73
2022/08/14 07:48:06;;;;;;;7.47;6.78;;;24.60;58.60;;;;;;5005542;28;20155;-73
2022/08/14 07:50:32;;;;;;;7.13;6.50;;;24.80;58.30;;;;;;4999347;28;20406;-72
2022/08/14 07:52:58;;;;;;;13.25;6.68;;;24.90;58.10;;;;;;5001270;28;20173;-75
2022/08/14 07:55:24;;;;;;;7.25;6.60;;;25.10;57.90;;;;;;5019106;28;20111;-74
2022/08/14 07:57:50;;;;;;;7.10;6.40;;;25.30;57.50;;;;;;4999528;28;20581;-73
2022/08/14 08:00:21;;;;;;;9.13;6.35;;;25.40;57.20;;;;;;4997911;28;20042;-74
2022/08/14 08:02:47;;;;;;;;;;;25.60;56.90;;;;;;5011446;28;20042;-73
2022/08/14 08:05:13;;;;;;;7.63;6.88;;;25.80;56.60;;;;;;5017302;28;19927;-73
2022/08/14 08:07:39;;;;;;;7.93;6.78;;;25.90;56.30;;;;;;5018470;28;20041;-73
2022/08/14 08:12:55;;;;;;;7.53;6.55;;;26.30;55.80;;;;;;4987984;28;20076;-74
2022/08/14 08:15:25;;;;;;;6.95;6.25;;;26.50;55.40;;;;;;5001579;28;20047;-72
2022/08/14 08:17:50;;;;;;;7.20;6.50;;;26.60;55.00;;;;;;4987628;28;20161;-73
2022/08/14 08:20:27;;;;;;;23.20;7.32;;;26.90;54.80;;;;;;5001804;28;20041;-72
2022/08/14 08:22:55;;;;;;;6.70;6.00;;;27.00;54.40;;;;;;5005070;28;20038;-73
2022/08/14 08:25:21;;;;;;;6.38;5.70;;;27.20;54.10;;;;;;5002934;28;20077;-74
2022/08/14 08:28:03;;;;;;;7.32;5.88;;;27.40;53.80;;;;;;5011595;28;20045;-73
2022/08/14 08:30:30;;;;;;;7.13;5.72;;;27.60;53.30;;;;;;5036344;28;20034;-73
2022/08/14 08:32:57;;;;;;;6.03;5.43;;;27.80;53.10;;;;;;5011972;28;20025;-73
2022/08/14 08:35:24;;;;;;;7.10;6.40;;;27.90;52.70;;;;;;4995616;28;20033;-74
2022/08/14 08:37:50;;;;;;;8.77;5.72;;;28.00;52.40;;;;;;5018193;28;20033;-74
2022/08/14 08:40:41;;;;;;;6.60;5.90;;;28.20;52.10;;;;;;5006037;28;20029;-74
2022/08/14 08:43:30;;;;;;;7.32;5.80;;;28.40;51.60;;;;;;5021342;28;20095;-73
2022/08/14 08:46:10;;;;;;;7.18;6.05;;;28.60;51.10;;;;;;5019827;28;20627;-73
2022/08/14 08:48:48;;;;;;;6.05;5.45;;;28.80;50.70;;;;;;5019483;28;20037;-75
2022/08/14 08:51:28;;;;;;;6.07;5.45;;;29.00;50.40;;;;;;5053215;28;20041;-74
2022/08/14 08:54:03;;;;;;;6.38;5.55;;;29.20;50.10;;;;;;4994881;28;20037;-74
2022/08/14 08:56:37;;;;;;;5.95;5.32;;;29.30;49.70;;;;;;5035298;28;20056;-73
2022/08/14 08:59:03;;;;;;;5.90;5.38;;;29.50;49.50;;;;;;5036714;28;20029;-73
2022/08/14 09:01:32;;;;;;;10.25;6.10;;;29.70;49.30;;;;;;5001000;28;20036;-75
2022/08/14 09:04:01;;;;;;;6.30;4.72;;;29.80;48.80;;;;;;5016650;28;20037;-74
2022/08/14 09:06:27;;;;;;;5.85;5.35;;;30.00;48.40;;;;;;5012623;28;20590;-73
2022/08/14 09:08:53;;;;;;;5.95;5.03;;;30.20;48.10;;;;;;5019508;28;20037;-74
2022/08/14 09:11:18;;;;;;;5.90;5.22;;;30.30;47.80;;;;;;5020454;28;20068;-75
2022/08/14 09:13:44;;;;;;;5.75;5.20;;;30.50;47.50;;;;;;5020520;28;20051;-74
2022/08/14 09:16:09;;;;;;;6.97;5.10;;;30.70;47.20;;;;;;5036652;28;20125;-74
2022/08/14 09:18:35;;;;;;;4.90;4.50;;;30.80;46.70;;;;;;5020076;28;20681;-74
2022/08/14 09:21:00;;;;;;;5.85;5.15;;;31.00;46.40;;;;;;5004313;28;20029;-74
2022/08/14 09:23:26;;;;;;;5.47;5.07;;;31.20;46.10;;;;;;5042940;28;20060;-74
2022/08/14 09:25:52;;;;;;;4.85;4.45;;;31.40;45.70;;;;;;5037551;28;20040;-74
2022/08/14 09:28:18;;;;;;;6.28;5.10;;;31.60;45.40;;;;;;5031347;28;20525;-73
2022/08/14 09:30:48;;;;;;;6.60;4.90;;;31.80;45.00;;;;;;5027412;28;20038;-74
2022/08/14 09:33:32;;;;;;;6.20;4.45;;;31.90;44.40;;;;;;5033812;28;20025;-74
2022/08/14 09:36:18;;;;;;;4.78;4.38;;;32.10;43.70;;;;;;5036642;28;20097;-75
2022/08/14 09:39:00;;;;;;;5.68;4.50;;;32.30;43.30;;;;;;5030647;28;20052;-74
2022/08/14 09:41:46;;;;;;;4.57;4.20;;;32.50;43.00;;;;;;5003027;28;20029;-75
2022/08/14 09:44:31;;;;;;;3.85;3.55;;;32.70;43.10;;;;;;5035852;28;20033;-74
2022/08/14 09:46:57;;;;;;;4.65;4.13;;;32.90;42.00;;;;;;5036553;28;20060;-74
2022/08/14 09:49:31;;;;;;;4.63;4.22;;;33.10;42.20;;;;;;5016009;28;20347;-74
2022/08/14 09:52:10;;;;;;;4.45;4.07;;;33.30;41.50;;;;;;5013446;28;20041;-74
2022/08/14 09:54:37;;;;;;;4.35;3.95;;;33.40;40.80;;;;;;5030775;28;20044;-74
2022/08/14 09:57:05;;;;;;;4.65;4.30;;;33.50;41.00;;;;;;5035555;28;20056;-75
2022/08/14 09:59:39;;;;;;;4.95;4.55;;;33.60;41.60;;;;;;5051181;28;20037;-74
2022/08/14 10:02:16;;;;;;;4.25;3.95;;;33.70;40.10;;;;;;5014766;28;20034;-74
2022/08/14 10:04:45;;;;;;;3.92;3.63;;;33.90;40.20;;;;;;5016078;28;20081;-75
2022/08/14 10:07:11;;;;;;;4.05;3.65;;;33.90;40.00;;;;;;5019114;28;20040;-75
2022/08/14 10:09:49;;;;;;;4.57;4.18;;;34.10;39.70;;;;;;5030943;28;20041;-74
2022/08/14 10:12:14;;;;;;;4.30;3.55;;;34.20;38.50;;;;;;5019761;28;20121;-74
2022/08/14 10:14:40;;;;;;;4.13;3.78;;;34.30;38.90;;;;;;5013190;28;20037;-75
2022/08/14 10:17:06;;;;;;;3.88;3.58;;;34.40;38.40;;;;;;5034222;28;20045;-75
2022/08/14 10:19:31;;;;;;;3.67;3.38;;;34.50;37.80;;;;;;4999962;28;20038;-75
2022/08/14 10:22:09;;;;;;;3.65;3.35;;;34.50;37.50;;;;;;5014712;28;20045;-75
2022/08/14 10:24:39;;;;;;;4.20;3.67;;;34.50;37.20;;;;;;5037954;28;20037;-75
2022/08/14 10:27:15;;;;;;;3.90;3.50;;;34.70;37.10;;;;;;5017254;28;20422;-75
2022/08/14 10:29:42;;;;;;;4.22;2.80;;;34.90;36.70;;;;;;5034976;28;20124;-75
2022/08/14 10:32:10;;;;;;;4.68;3.20;;;35.10;36.70;;;;;;5035457;28;20048;-76
2022/08/14 10:34:38;;;;;;;3.10;2.90;;;35.20;36.30;;;;;;5021409;28;20033;-76
2022/08/14 10:37:11;;;;;;;3.53;2.75;;;35.30;36.00;;;;;;5042281;28;20124;-77
2022/08/14 10:39:40;;;;;;;3.20;3.00;;;35.40;35.80;;;;;;5042186;28;20033;-76
2022/08/14 10:42:13;;;;;;;3.60;3.30;;;35.60;35.80;;;;;;5010318;28;20502;-76
2022/08/14 10:44:45;;;;;;;3.22;3.03;;;35.70;35.40;;;;;;5000073;28;22019;-75
2022/08/14 10:47:11;;;;;;;4.57;3.78;;;35.90;35.30;;;;;;5020382;28;20041;-77
2022/08/14 10:49:37;;;;;;;4.47;3.47;;;36.00;35.10;;;;;;5020994;28;20036;-74
2022/08/14 10:52:05;;;;;;;3.80;3.40;;;36.00;34.80;;;;;;5021060;28;20033;-75
2022/08/14 10:54:40;;;;;;;3.50;3.20;;;36.00;34.60;;;;;;5037622;28;20043;-75
2022/08/14 10:57:25;;;;;;;3.38;3.08;;;36.00;34.00;;;;;;5043283;28;20037;-76
2022/08/14 10:59:54;;;;;;;3.35;3.05;;;36.10;33.50;;;;;;5020710;28;20080;-75
2022/08/14 11:02:29;;;;;;;3.25;3.03;;;36.00;34.00;;;;;;5040900;28;20035;-76
2022/08/14 11:05:05;;;;;;;3.20;3.00;;;36.10;34.00;;;;;;5023792;28;20128;-76
2022/08/14 11:07:31;;;;;;;3.88;2.90;;;36.20;33.70;;;;;;5012410;28;20101;-76
2022/08/14 11:09:59;;;;;;;3.20;2.97;;;36.30;33.60;;;;;;5024322;28;20038;-73
2022/08/14 11:12:25;;;;;;;3.03;2.83;;;36.40;33.30;;;;;;5009568;28;20037;-74
2022/08/14 11:15:06;;;;;;;3.42;3.05;;;36.60;33.30;;;;;;5017240;28;20033;-76
2022/08/14 11:17:33;;;;;;;4.97;2.92;;;36.70;32.50;;;;;;5016631;28;20037;-75
2022/08/14 11:20:00;;;;;;;2.97;2.75;;;36.80;32.50;;;;;;5030827;28;20210;-75
2022/08/14 11:22:31;;;;;;;3.35;3.05;;;36.80;32.10;;;;;;5027863;28;20110;-75
2022/08/14 11:25:05;;;;;;;5.05;2.78;;;36.90;31.80;;;;;;5031239;28;20584;-74
2022/08/14 11:27:31;;;;;;;3.50;2.75;;;37.00;31.50;;;;;;5025160;28;20385;-75
2022/08/14 11:30:02;;;;;;;2.88;2.67;;;37.10;31.60;;;;;;5026178;28;20090;-75
2022/08/14 11:32:29;;;;;;;2.92;2.72;;;37.20;31.40;;;;;;5027948;28;20192;-75
2022/08/14 11:34:56;;;;;;;4.00;3.22;;;37.40;31.30;;;;;;5025210;28;20041;-75
2022/08/14 11:37:22;;;;;;;3.00;2.40;;;37.50;31.20;;;;;;5009941;28;20040;-74
2022/08/14 11:39:47;;;;;;;3.28;2.97;;;37.60;31.10;;;;;;5025371;28;20502;-73
2022/08/14 11:42:24;;;;;;;2.97;2.40;;;37.70;30.90;;;;;;5021824;28;20037;-74
2022/08/14 11:44:51;;;;;;;2.50;2.33;;;37.80;30.40;;;;;;5002700;28;20953;-74
2022/08/14 11:47:20;;;;;;;1.92;1.83;;;37.90;30.60;;;;;;5006865;28;20693;-73
2022/08/14 11:49:46;;;;;;;2.80;2.60;;;38.00;30.20;;;;;;5009406;28;20063;-74
2022/08/14 11:52:19;;;;;;;2.22;1.95;;;37.80;30.00;;;;;;5020436;28;20049;-75
2022/08/14 11:54:45;;;;;;;2.55;2.45;;;37.60;29.90;;;;;;5016782;28;20041;-74
2022/08/14 11:57:18;;;;;;;4.95;2.42;;;37.50;29.90;;;;;;5012641;28;20117;-76
2022/08/14 11:59:44;;;;;;;3.38;2.50;;;37.30;30.20;;;;;;5015559;28;20060;-75
2022/08/14 12:02:13;;;;;;;2.58;2.38;;;37.40;29.90;;;;;;5029789;28;20073;-75
2022/08/14 12:04:49;;;;;;;3.33;2.38;;;37.50;29.90;;;;;;5047624;28;20053;-75
2022/08/14 12:07:15;;;;;;;2.20;2.10;;;37.60;29.50;;;;;;5015165;28;20041;-75
2022/08/14 12:09:41;;;;;;;2.67;2.47;;;37.60;29.60;;;;;;5028613;28;20087;-73
2022/08/14 12:12:32;;;;;;;2.30;2.10;;;37.60;29.60;;;;;;5027581;28;20116;-75
2022/08/14 12:14:59;;;;;;;2.25;2.08;;;37.70;29.20;;;;;;5023293;28;20120;-75
2022/08/14 12:17:31;;;;;;;2.25;2.05;;;37.80;29.50;;;;;;5021037;28;20048;-76
2022/08/14 12:20:01;;;;;;;1.92;1.83;;;38.00;29.20;;;;;;5024284;28;20033;-74
2022/08/14 12:22:35;;;;;;;4.10;2.38;;;38.10;29.10;;;;;;5028631;28;20047;-74
2022/08/14 12:25:01;;;;;;;3.88;2.58;;;38.20;28.70;;;;;;4989786;28;20444;-74
2022/08/14 12:27:43;;;;;;;2.42;2.30;;;38.10;28.80;;;;;;5035320;28;20049;-75
2022/08/14 12:30:12;;;;;;;2.85;2.38;;;38.10;28.40;;;;;;5030038;28;20502;-73
2022/08/14 12:32:42;;;;;;;4.97;2.00;;;38.10;28.60;;;;;;5024401;28;20110;-72
2022/08/14 12:35:08;;;;;;;2.38;2.17;;;38.10;28.70;;;;;;5023284;28;20040;-75
2022/08/14 12:37:35;;;;;;;2.50;1.88;;;38.20;28.60;;;;;;5031702;28;20041;-74
2022/08/14 12:40:11;;;;;;;2.42;2.20;;;38.20;28.50;;;;;;5000384;28;20037;-72
2022/08/14 12:42:37;;;;;;;2.25;2.05;;;38.30;28.30;;;;;;5026440;28;20757;-73
2022/08/14 12:45:04;;;;;;;2.25;2.10;;;38.30;28.40;;;;;;5030317;28;20041;-74
2022/08/14 12:47:30;;;;;;;2.42;2.22;;;38.40;28.40;;;;;;5029928;28;20090;-74
2022/08/14 12:49:56;;;;;;;2.15;2.05;;;38.40;28.30;;;;;;5027809;28;20560;-73
2022/08/14 12:52:28;;;;;;;2.35;2.15;;;38.50;28.90;;;;;;5027661;28;20120;-73
2022/08/14 12:55:03;;;;;;;2.25;2.10;;;38.50;28.00;;;;;;5021311;28;20037;-74
2022/08/14 12:57:42;;;;;;;3.22;2.03;;;38.50;28.00;;;;;;5029411;28;20037;-74
2022/08/14 13:00:17;;;;;;;2.22;2.13;;;38.50;27.80;;;;;;5013101;28;20063;-73
2022/08/14 13:02:44;;;;;;;2.42;2.25;;;38.50;28.00;;;;;;5013282;28;20056;-74
2022/08/14 13:05:11;;;;;;;2.30;2.10;;;38.50;28.10;;;;;;5027631;28;20041;-73
2022/08/14 13:07:38;;;;;;;3.50;2.17;;;38.70;28.10;;;;;;5028538;28;20034;-74
2022/08/14 13:10:05;;;;;;;2.42;2.13;;;38.70;28.00;;;;;;5026888;28;20049;-74
2022/08/14 13:12:30;;;;;;;2.30;2.20;;;38.80;28.00;;;;;;5027224;28;20661;-74
2022/08/14 13:14:57;;;;;;;2.17;2.08;;;38.90;27.90;;;;;;5029564;28;20030;-73
2022/08/14 13:17:23;;;;;;;2.33;2.22;;;39.00;27.70;;;;;;5023854;28;20037;-74